sensor_id;sensor_type;location;lat;lon;timestamp;P1;durP1;ratioP1;P2;durP2;ratioP2
15198;SDS011;7700;48.654;9.070;2023-04-03T00:01:11;4.63;;;3.13;;
15198;SDS011;7700;48.654;9.070;2023-04-03T00:03:37;4.27;;;3.00;;
15198;SDS011;7700;48.654;9.070;2023-04-03T00:06:03;3.57;;;3.27;;
15198;SDS011;7700;48.654;9.070;2023-04-03T00:08:31;3.77;;;3.07;;
15198;SDS011;7700;48.654;9.070;2023-04-03T00:10:58;3.20;;;2.83;;
15198;SDS011;7700;48.654;9.070;2023-04-03T00:13:24;3.67;;;3.10;;
15198;SDS011;7700;48.654;9.070;2023-04-03T00:15:51;3.50;;;3.20;;
15198;SDS011;7700;48.654;9.070;2023-04-03T00:18:17;3.67;;;2.93;;
15198;SDS011;7700;48.654;9.070;2023-04-03T00:20:43;3.40;;;3.10;;
15198;SDS011;7700;48.654;9.070;2023-04-03T00:23:09;2.90;;;2.70;;
15198;SDS011;7700;48.654;9.070;2023-04-03T00:25:35;3.00;;;2.80;;
15198;SDS011;7700;48.654;9.070;2023-04-03T00:28:02;3.77;;;3.03;;
15198;SDS011;7700;48.654;9.070;2023-04-03T00:30:28;3.93;;;2.93;;
15198;SDS011;7700;48.654;9.070;2023-04-03T00:32:54;3.30;;;3.00;;
15198;SDS011;7700;48.654;9.070;2023-04-03T00:35:20;3.17;;;2.83;;
15198;SDS011;7700;48.654;9.070;2023-04-03T00:37:47;2.93;;;2.73;;
15198;SDS011;7700;48.654;9.070;2023-04-03T00:40:14;3.20;;;2.90;;
15198;SDS011;7700;48.654;9.070;2023-04-03T00:42:41;3.10;;;2.80;;
15198;SDS011;7700;48.654;9.070;2023-04-03T00:47:38;4.00;;;3.30;;
15198;SDS011;7700;48.654;9.070;2023-04-03T00:50:04;3.67;;;2.97;;
15198;SDS011;7700;48.654;9.070;2023-04-03T00:52:30;3.73;;;3.30;;
15198;SDS011;7700;48.654;9.070;2023-04-03T00:54:58;2.90;;;2.70;;
15198;SDS011;7700;48.654;9.070;2023-04-03T00:57:26;3.50;;;3.20;;
15198;SDS011;7700;48.654;9.070;2023-04-03T00:59:55;3.43;;;3.13;;
15198;SDS011;7700;48.654;9.070;2023-04-03T01:02:23;4.10;;;3.07;;
15198;SDS011;7700;48.654;9.070;2023-04-03T01:04:49;3.70;;;3.37;;
15198;SDS011;7700;48.654;9.070;2023-04-03T01:07:16;3.90;;;3.50;;
15198;SDS011;7700;48.654;9.070;2023-04-03T01:09:43;3.83;;;3.10;;
15198;SDS011;7700;48.654;9.070;2023-04-03T01:14:43;3.10;;;2.90;;
15198;SDS011;7700;48.654;9.070;2023-04-03T01:22:35;4.00;;;3.07;;
15198;SDS011;7700;48.654;9.070;2023-04-03T01:25:09;3.47;;;3.17;;
15198;SDS011;7700;48.654;9.070;2023-04-03T01:27:35;3.20;;;3.00;;
15198;SDS011;7700;48.654;9.070;2023-04-03T01:30:01;3.83;;;3.10;;
15198;SDS011;7700;48.654;9.070;2023-04-03T01:32:27;3.10;;;2.90;;
15198;SDS011;7700;48.654;9.070;2023-04-03T01:34:53;3.40;;;2.70;;
15198;SDS011;7700;48.654;9.070;2023-04-03T01:37:19;3.30;;;3.00;;
15198;SDS011;7700;48.654;9.070;2023-04-03T01:39:45;3.20;;;2.90;;
15198;SDS011;7700;48.654;9.070;2023-04-03T01:42:11;3.13;;;2.93;;
15198;SDS011;7700;48.654;9.070;2023-04-03T01:44:37;3.50;;;3.20;;
15198;SDS011;7700;48.654;9.070;2023-04-03T01:47:05;4.07;;;3.00;;
15198;SDS011;7700;48.654;9.070;2023-04-03T01:49:32;3.57;;;2.87;;
15198;SDS011;7700;48.654;9.070;2023-04-03T01:51:58;3.33;;;3.03;;
15198;SDS011;7700;48.654;9.070;2023-04-03T01:54:24;3.70;;;3.40;;
15198;SDS011;7700;48.654;9.070;2023-04-03T01:56:50;3.23;;;2.93;;
15198;SDS011;7700;48.654;9.070;2023-04-03T01:59:16;3.87;;;3.20;;
15198;SDS011;7700;48.654;9.070;2023-04-03T02:01:43;3.47;;;2.73;;
15198;SDS011;7700;48.654;9.070;2023-04-03T02:04:10;3.97;;;3.67;;
15198;SDS011;7700;48.654;9.070;2023-04-03T02:06:36;3.50;;;3.20;;
15198;SDS011;7700;48.654;9.070;2023-04-03T02:09:02;4.57;;;3.10;;
15198;SDS011;7700;48.654;9.070;2023-04-03T02:11:29;4.10;;;3.00;;
15198;SDS011;7700;48.654;9.070;2023-04-03T02:13:55;3.47;;;3.13;;
15198;SDS011;7700;48.654;9.070;2023-04-03T02:16:21;4.07;;;2.63;;
15198;SDS011;7700;48.654;9.070;2023-04-03T02:18:47;3.83;;;2.67;;
15198;SDS011;7700;48.654;9.070;2023-04-03T02:21:13;3.50;;;3.20;;
15198;SDS011;7700;48.654;9.070;2023-04-03T02:23:39;3.80;;;3.00;;
15198;SDS011;7700;48.654;9.070;2023-04-03T02:26:06;2.97;;;2.77;;
15198;SDS011;7700;48.654;9.070;2023-04-03T02:28:32;3.10;;;2.90;;
15198;SDS011;7700;48.654;9.070;2023-04-03T02:30:58;3.73;;;3.43;;
15198;SDS011;7700;48.654;9.070;2023-04-03T02:33:25;3.10;;;2.77;;
15198;SDS011;7700;48.654;9.070;2023-04-03T02:35:54;3.40;;;3.10;;
15198;SDS011;7700;48.654;9.070;2023-04-03T02:38:20;3.27;;;3.00;;
15198;SDS011;7700;48.654;9.070;2023-04-03T02:40:46;4.10;;;3.03;;
15198;SDS011;7700;48.654;9.070;2023-04-03T02:43:12;4.20;;;3.20;;
15198;SDS011;7700;48.654;9.070;2023-04-03T02:45:38;4.03;;;3.17;;
15198;SDS011;7700;48.654;9.070;2023-04-03T02:48:04;3.63;;;3.33;;
15198;SDS011;7700;48.654;9.070;2023-04-03T02:50:30;3.30;;;2.90;;
15198;SDS011;7700;48.654;9.070;2023-04-03T02:52:56;3.07;;;2.73;;
15198;SDS011;7700;48.654;9.070;2023-04-03T02:55:22;3.17;;;2.73;;
15198;SDS011;7700;48.654;9.070;2023-04-03T02:57:48;5.10;;;3.53;;
15198;SDS011;7700;48.654;9.070;2023-04-03T03:00:14;4.37;;;2.90;;
15198;SDS011;7700;48.654;9.070;2023-04-03T03:02:41;3.07;;;2.77;;
15198;SDS011;7700;48.654;9.070;2023-04-03T03:05:07;3.60;;;2.70;;
15198;SDS011;7700;48.654;9.070;2023-04-03T03:07:33;3.77;;;3.10;;
15198;SDS011;7700;48.654;9.070;2023-04-03T03:09:59;3.53;;;3.23;;
15198;SDS011;7700;48.654;9.070;2023-04-03T03:12:25;3.33;;;3.03;;
15198;SDS011;7700;48.654;9.070;2023-04-03T03:14:51;2.93;;;2.73;;
15198;SDS011;7700;48.654;9.070;2023-04-03T03:17:17;2.77;;;2.57;;
15198;SDS011;7700;48.654;9.070;2023-04-03T03:19:43;3.33;;;3.00;;
15198;SDS011;7700;48.654;9.070;2023-04-03T03:22:10;4.00;;;2.83;;
15198;SDS011;7700;48.654;9.070;2023-04-03T03:24:36;3.77;;;3.20;;
15198;SDS011;7700;48.654;9.070;2023-04-03T03:27:02;3.83;;;3.00;;
15198;SDS011;7700;48.654;9.070;2023-04-03T03:29:28;3.20;;;2.90;;
15198;SDS011;7700;48.654;9.070;2023-04-03T03:31:55;3.27;;;2.67;;
15198;SDS011;7700;48.654;9.070;2023-04-03T03:34:21;3.07;;;2.77;;
15198;SDS011;7700;48.654;9.070;2023-04-03T03:36:47;2.87;;;2.67;;
15198;SDS011;7700;48.654;9.070;2023-04-03T03:39:13;4.27;;;3.30;;
15198;SDS011;7700;48.654;9.070;2023-04-03T03:41:39;3.67;;;3.30;;
15198;SDS011;7700;48.654;9.070;2023-04-03T03:44:05;3.73;;;3.23;;
15198;SDS011;7700;48.654;9.070;2023-04-03T03:46:31;3.20;;;2.90;;
15198;SDS011;7700;48.654;9.070;2023-04-03T03:48:57;3.20;;;2.83;;
15198;SDS011;7700;48.654;9.070;2023-04-03T03:51:23;3.30;;;3.00;;
15198;SDS011;7700;48.654;9.070;2023-04-03T03:53:49;4.70;;;2.90;;
15198;SDS011;7700;48.654;9.070;2023-04-03T03:56:15;3.67;;;3.07;;
15198;SDS011;7700;48.654;9.070;2023-04-03T03:58:41;3.23;;;3.00;;
15198;SDS011;7700;48.654;9.070;2023-04-03T04:01:07;2.67;;;2.47;;
15198;SDS011;7700;48.654;9.070;2023-04-03T04:03:34;3.53;;;2.70;;
15198;SDS011;7700;48.654;9.070;2023-04-03T04:06:00;3.50;;;2.90;;
15198;SDS011;7700;48.654;9.070;2023-04-03T04:08:26;3.07;;;2.60;;
15198;SDS011;7700;48.654;9.070;2023-04-03T04:10:52;3.77;;;3.07;;
15198;SDS011;7700;48.654;9.070;2023-04-03T04:13:18;4.43;;;3.37;;
15198;SDS011;7700;48.654;9.070;2023-04-03T04:15:44;3.33;;;3.03;;
15198;SDS011;7700;48.654;9.070;2023-04-03T04:18:10;3.33;;;3.03;;
15198;SDS011;7700;48.654;9.070;2023-04-03T04:20:36;2.83;;;2.60;;
15198;SDS011;7700;48.654;9.070;2023-04-03T04:23:02;3.10;;;2.80;;
15198;SDS011;7700;48.654;9.070;2023-04-03T04:25:28;3.20;;;3.00;;
15198;SDS011;7700;48.654;9.070;2023-04-03T04:27:54;2.80;;;2.53;;
15198;SDS011;7700;48.654;9.070;2023-04-03T04:30:20;3.90;;;3.30;;
15198;SDS011;7700;48.654;9.070;2023-04-03T04:32:46;2.77;;;2.57;;
15198;SDS011;7700;48.654;9.070;2023-04-03T04:35:12;4.20;;;3.27;;
15198;SDS011;7700;48.654;9.070;2023-04-03T04:37:38;3.77;;;3.10;;
15198;SDS011;7700;48.654;9.070;2023-04-03T04:40:05;3.67;;;2.97;;
15198;SDS011;7700;48.654;9.070;2023-04-03T04:42:31;3.47;;;3.17;;
15198;SDS011;7700;48.654;9.070;2023-04-03T04:44:57;4.17;;;2.77;;
15198;SDS011;7700;48.654;9.070;2023-04-03T04:47:23;3.47;;;3.10;;
15198;SDS011;7700;48.654;9.070;2023-04-03T04:49:49;3.27;;;2.97;;
15198;SDS011;7700;48.654;9.070;2023-04-03T04:52:15;3.27;;;2.90;;
15198;SDS011;7700;48.654;9.070;2023-04-03T04:54:41;2.93;;;2.63;;
15198;SDS011;7700;48.654;9.070;2023-04-03T04:57:07;3.00;;;2.80;;
15198;SDS011;7700;48.654;9.070;2023-04-03T04:59:33;3.53;;;2.90;;
15198;SDS011;7700;48.654;9.070;2023-04-03T05:01:59;3.53;;;3.00;;
15198;SDS011;7700;48.654;9.070;2023-04-03T05:04:25;4.00;;;2.60;;
15198;SDS011;7700;48.654;9.070;2023-04-03T05:06:51;3.30;;;2.90;;
15198;SDS011;7700;48.654;9.070;2023-04-03T05:09:17;3.70;;;2.73;;
15198;SDS011;7700;48.654;9.070;2023-04-03T05:11:45;3.03;;;2.83;;
15198;SDS011;7700;48.654;9.070;2023-04-03T05:14:11;4.03;;;2.43;;
15198;SDS011;7700;48.654;9.070;2023-04-03T05:16:37;2.63;;;2.40;;
15198;SDS011;7700;48.654;9.070;2023-04-03T05:19:03;2.60;;;2.40;;
15198;SDS011;7700;48.654;9.070;2023-04-03T05:21:29;2.23;;;2.10;;
15198;SDS011;7700;48.654;9.070;2023-04-03T05:23:59;2.83;;;2.50;;
15198;SDS011;7700;48.654;9.070;2023-04-03T05:26:27;2.90;;;2.63;;
15198;SDS011;7700;48.654;9.070;2023-04-03T05:28:54;2.43;;;2.00;;
15198;SDS011;7700;48.654;9.070;2023-04-03T05:31:20;2.30;;;2.10;;
15198;SDS011;7700;48.654;9.070;2023-04-03T05:33:46;2.33;;;2.03;;
15198;SDS011;7700;48.654;9.070;2023-04-03T05:36:12;2.63;;;2.10;;
15198;SDS011;7700;48.654;9.070;2023-04-03T05:38:38;2.40;;;2.20;;
15198;SDS011;7700;48.654;9.070;2023-04-03T05:41:04;5.27;;;3.27;;
15198;SDS011;7700;48.654;9.070;2023-04-03T05:43:30;1.90;;;1.80;;
15198;SDS011;7700;48.654;9.070;2023-04-03T05:45:57;2.53;;;2.33;;
15198;SDS011;7700;48.654;9.070;2023-04-03T05:48:23;2.30;;;1.90;;
15198;SDS011;7700;48.654;9.070;2023-04-03T05:50:50;3.60;;;2.33;;
15198;SDS011;7700;48.654;9.070;2023-04-03T05:53:25;2.50;;;2.13;;
15198;SDS011;7700;48.654;9.070;2023-04-03T05:55:52;2.40;;;1.80;;
15198;SDS011;7700;48.654;9.070;2023-04-03T05:58:18;1.87;;;1.77;;
15198;SDS011;7700;48.654;9.070;2023-04-03T06:00:44;2.60;;;2.03;;
15198;SDS011;7700;48.654;9.070;2023-04-03T06:03:11;3.53;;;2.30;;
15198;SDS011;7700;48.654;9.070;2023-04-03T06:05:37;2.40;;;2.17;;
15198;SDS011;7700;48.654;9.070;2023-04-03T06:08:03;2.10;;;1.90;;
15198;SDS011;7700;48.654;9.070;2023-04-03T06:10:30;3.07;;;2.00;;
15198;SDS011;7700;48.654;9.070;2023-04-03T06:12:56;2.37;;;1.97;;
15198;SDS011;7700;48.654;9.070;2023-04-03T06:15:22;2.70;;;2.40;;
15198;SDS011;7700;48.654;9.070;2023-04-03T06:17:49;2.53;;;1.87;;
15198;SDS011;7700;48.654;9.070;2023-04-03T06:20:16;2.67;;;1.80;;
15198;SDS011;7700;48.654;9.070;2023-04-03T06:22:42;2.20;;;2.07;;
15198;SDS011;7700;48.654;9.070;2023-04-03T06:25:08;3.27;;;2.30;;
15198;SDS011;7700;48.654;9.070;2023-04-03T06:27:35;2.27;;;2.03;;
15198;SDS011;7700;48.654;9.070;2023-04-03T06:30:01;2.97;;;2.33;;
15198;SDS011;7700;48.654;9.070;2023-04-03T06:32:27;2.53;;;2.33;;
15198;SDS011;7700;48.654;9.070;2023-04-03T06:34:53;2.60;;;2.40;;
15198;SDS011;7700;48.654;9.070;2023-04-03T06:37:21;2.50;;;2.30;;
15198;SDS011;7700;48.654;9.070;2023-04-03T06:39:50;2.53;;;2.33;;
15198;SDS011;7700;48.654;9.070;2023-04-03T06:42:16;2.10;;;1.87;;
15198;SDS011;7700;48.654;9.070;2023-04-03T06:44:42;2.87;;;2.30;;
15198;SDS011;7700;48.654;9.070;2023-04-03T06:47:15;3.47;;;2.77;;
15198;SDS011;7700;48.654;9.070;2023-04-03T06:49:41;4.27;;;2.40;;
15198;SDS011;7700;48.654;9.070;2023-04-03T06:52:08;3.37;;;2.10;;
15198;SDS011;7700;48.654;9.070;2023-04-03T06:54:34;2.17;;;2.03;;
15198;SDS011;7700;48.654;9.070;2023-04-03T06:57:01;2.50;;;2.30;;
15198;SDS011;7700;48.654;9.070;2023-04-03T06:59:27;2.60;;;2.00;;
15198;SDS011;7700;48.654;9.070;2023-04-03T07:01:53;2.83;;;2.33;;
15198;SDS011;7700;48.654;9.070;2023-04-03T07:04:19;2.50;;;2.30;;
15198;SDS011;7700;48.654;9.070;2023-04-03T07:06:46;2.20;;;2.00;;
15198;SDS011;7700;48.654;9.070;2023-04-03T07:09:12;2.07;;;1.87;;
15198;SDS011;7700;48.654;9.070;2023-04-03T07:11:39;3.23;;;2.67;;
15198;SDS011;7700;48.654;9.070;2023-04-03T07:14:05;2.67;;;1.87;;
15198;SDS011;7700;48.654;9.070;2023-04-03T07:16:32;4.47;;;2.10;;
15198;SDS011;7700;48.654;9.070;2023-04-03T07:18:58;3.43;;;1.90;;
15198;SDS011;7700;48.654;9.070;2023-04-03T07:21:25;2.40;;;2.20;;
15198;SDS011;7700;48.654;9.070;2023-04-03T07:23:51;5.30;;;2.87;;
15198;SDS011;7700;48.654;9.070;2023-04-03T07:26:17;3.83;;;2.10;;
15198;SDS011;7700;48.654;9.070;2023-04-03T07:28:43;2.70;;;2.20;;
15198;SDS011;7700;48.654;9.070;2023-04-03T07:31:11;3.40;;;2.17;;
15198;SDS011;7700;48.654;9.070;2023-04-03T07:33:38;2.93;;;2.23;;
15198;SDS011;7700;48.654;9.070;2023-04-03T07:36:05;3.00;;;2.40;;
15198;SDS011;7700;48.654;9.070;2023-04-03T07:38:32;2.83;;;2.17;;
15198;SDS011;7700;48.654;9.070;2023-04-03T07:40:58;3.50;;;2.20;;
15198;SDS011;7700;48.654;9.070;2023-04-03T07:43:24;2.63;;;1.83;;
15198;SDS011;7700;48.654;9.070;2023-04-03T07:45:51;2.57;;;1.87;;
15198;SDS011;7700;48.654;9.070;2023-04-03T07:48:19;2.20;;;2.07;;
15198;SDS011;7700;48.654;9.070;2023-04-03T07:50:46;2.40;;;2.03;;
15198;SDS011;7700;48.654;9.070;2023-04-03T07:53:12;3.67;;;2.30;;
15198;SDS011;7700;48.654;9.070;2023-04-03T07:55:38;2.83;;;1.93;;
15198;SDS011;7700;48.654;9.070;2023-04-03T07:58:11;2.00;;;1.80;;
15198;SDS011;7700;48.654;9.070;2023-04-03T08:00:37;2.70;;;2.17;;
15198;SDS011;7700;48.654;9.070;2023-04-03T08:03:04;1.87;;;1.67;;
15198;SDS011;7700;48.654;9.070;2023-04-03T08:05:30;4.93;;;2.07;;
15198;SDS011;7700;48.654;9.070;2023-04-03T08:07:57;2.57;;;2.27;;
15198;SDS011;7700;48.654;9.070;2023-04-03T08:10:23;3.03;;;2.07;;
15198;SDS011;7700;48.654;9.070;2023-04-03T08:12:49;3.20;;;2.10;;
15198;SDS011;7700;48.654;9.070;2023-04-03T08:15:16;3.37;;;1.90;;
15198;SDS011;7700;48.654;9.070;2023-04-03T08:17:42;2.57;;;2.37;;
15198;SDS011;7700;48.654;9.070;2023-04-03T08:20:09;2.10;;;1.80;;
15198;SDS011;7700;48.654;9.070;2023-04-03T08:22:35;2.00;;;1.80;;
15198;SDS011;7700;48.654;9.070;2023-04-03T08:25:01;2.77;;;2.50;;
15198;SDS011;7700;48.654;9.070;2023-04-03T08:27:27;3.53;;;3.00;;
15198;SDS011;7700;48.654;9.070;2023-04-03T08:29:54;3.27;;;2.30;;
15198;SDS011;7700;48.654;9.070;2023-04-03T08:32:20;2.40;;;2.20;;
15198;SDS011;7700;48.654;9.070;2023-04-03T08:34:47;3.43;;;2.10;;
15198;SDS011;7700;48.654;9.070;2023-04-03T08:37:13;2.10;;;1.90;;
15198;SDS011;7700;48.654;9.070;2023-04-03T08:39:41;2.73;;;2.30;;
15198;SDS011;7700;48.654;9.070;2023-04-03T08:42:25;3.13;;;2.07;;
15198;SDS011;7700;48.654;9.070;2023-04-03T08:44:59;3.37;;;2.10;;
15198;SDS011;7700;48.654;9.070;2023-04-03T08:49:59;2.53;;;2.13;;
15198;SDS011;7700;48.654;9.070;2023-04-03T08:54:56;2.67;;;2.00;;
15198;SDS011;7700;48.654;9.070;2023-04-03T08:57:26;2.43;;;2.17;;
15198;SDS011;7700;48.654;9.070;2023-04-03T08:59:53;3.60;;;2.70;;
15198;SDS011;7700;48.654;9.070;2023-04-03T09:04:51;2.43;;;2.13;;
15198;SDS011;7700;48.654;9.070;2023-04-03T09:07:22;2.30;;;2.10;;
15198;SDS011;7700;48.654;9.070;2023-04-03T09:09:51;2.77;;;2.17;;
15198;SDS011;7700;48.654;9.070;2023-04-03T09:12:21;2.53;;;2.33;;
15198;SDS011;7700;48.654;9.070;2023-04-03T09:14:57;3.57;;;2.37;;
15198;SDS011;7700;48.654;9.070;2023-04-03T09:20:17;2.43;;;2.20;;
15198;SDS011;7700;48.654;9.070;2023-04-03T09:22:45;4.27;;;2.50;;
15198;SDS011;7700;48.654;9.070;2023-04-03T09:25:18;2.70;;;2.17;;
15198;SDS011;7700;48.654;9.070;2023-04-03T09:27:46;3.40;;;2.40;;
15198;SDS011;7700;48.654;9.070;2023-04-03T09:30:13;3.83;;;2.17;;
15198;SDS011;7700;48.654;9.070;2023-04-03T09:32:39;2.27;;;2.07;;
15198;SDS011;7700;48.654;9.070;2023-04-03T09:37:45;2.17;;;2.03;;
15198;SDS011;7700;48.654;9.070;2023-04-03T09:40:45;3.00;;;2.10;;
15198;SDS011;7700;48.654;9.070;2023-04-03T09:43:37;2.87;;;2.03;;
15198;SDS011;7700;48.654;9.070;2023-04-03T09:46:00;3.10;;;2.83;;
15198;SDS011;7700;48.654;9.070;2023-04-03T09:48:49;3.27;;;2.20;;
15198;SDS011;7700;48.654;9.070;2023-04-03T09:51:16;2.40;;;1.97;;
15198;SDS011;7700;48.654;9.070;2023-04-03T09:53:42;3.80;;;2.60;;
15198;SDS011;7700;48.654;9.070;2023-04-03T09:58:42;2.80;;;2.17;;
15198;SDS011;7700;48.654;9.070;2023-04-03T10:03:31;3.63;;;2.10;;
15198;SDS011;7700;48.654;9.070;2023-04-03T10:05:59;2.37;;;1.80;;
15198;SDS011;7700;48.654;9.070;2023-04-03T10:08:27;2.47;;;2.07;;
15198;SDS011;7700;48.654;9.070;2023-04-03T10:11:07;3.13;;;2.10;;
15198;SDS011;7700;48.654;9.070;2023-04-03T10:13:34;2.07;;;1.83;;
15198;SDS011;7700;48.654;9.070;2023-04-03T10:16:06;2.53;;;2.10;;
15198;SDS011;7700;48.654;9.070;2023-04-03T10:18:40;2.70;;;2.27;;
15198;SDS011;7700;48.654;9.070;2023-04-03T10:21:31;2.27;;;2.07;;
15198;SDS011;7700;48.654;9.070;2023-04-03T10:24:18;2.07;;;1.93;;
15198;SDS011;7700;48.654;9.070;2023-04-03T10:26:48;2.70;;;2.07;;
15198;SDS011;7700;48.654;9.070;2023-04-03T10:29:20;2.50;;;1.77;;
15198;SDS011;7700;48.654;9.070;2023-04-03T10:31:58;3.33;;;1.93;;
15198;SDS011;7700;48.654;9.070;2023-04-03T10:34:29;2.30;;;2.10;;
15198;SDS011;7700;48.654;9.070;2023-04-03T10:39:51;1.60;;;1.50;;
15198;SDS011;7700;48.654;9.070;2023-04-03T10:42:28;2.73;;;1.70;;
15198;SDS011;7700;48.654;9.070;2023-04-03T10:44:59;3.80;;;2.30;;
15198;SDS011;7700;48.654;9.070;2023-04-03T10:47:34;2.37;;;1.67;;
15198;SDS011;7700;48.654;9.070;2023-04-03T10:50:21;2.37;;;1.67;;
15198;SDS011;7700;48.654;9.070;2023-04-03T10:53:08;2.13;;;1.50;;
15198;SDS011;7700;48.654;9.070;2023-04-03T10:55:43;2.63;;;1.93;;
15198;SDS011;7700;48.654;9.070;2023-04-03T10:58:18;2.13;;;1.47;;
15198;SDS011;7700;48.654;9.070;2023-04-03T11:00:46;2.30;;;1.70;;
15198;SDS011;7700;48.654;9.070;2023-04-03T11:03:23;3.93;;;1.50;;
15198;SDS011;7700;48.654;9.070;2023-04-03T11:05:53;2.77;;;1.83;;
15198;SDS011;7700;48.654;9.070;2023-04-03T11:10:53;4.13;;;1.77;;
15198;SDS011;7700;48.654;9.070;2023-04-03T11:13:28;2.30;;;1.97;;
15198;SDS011;7700;48.654;9.070;2023-04-03T11:15:58;1.57;;;1.43;;
15198;SDS011;7700;48.654;9.070;2023-04-03T11:18:35;1.87;;;1.50;;
15198;SDS011;7700;48.654;9.070;2023-04-03T11:21:04;2.10;;;1.33;;
15198;SDS011;7700;48.654;9.070;2023-04-03T11:23:33;1.67;;;1.30;;
15198;SDS011;7700;48.654;9.070;2023-04-03T11:26:11;1.60;;;1.50;;
15198;SDS011;7700;48.654;9.070;2023-04-03T11:28:37;2.20;;;1.90;;
15198;SDS011;7700;48.654;9.070;2023-04-03T11:33:43;4.13;;;1.70;;
15198;SDS011;7700;48.654;9.070;2023-04-03T11:38:44;2.60;;;1.60;;
15198;SDS011;7700;48.654;9.070;2023-04-03T11:41:11;4.10;;;1.70;;
15198;SDS011;7700;48.654;9.070;2023-04-03T11:43:43;4.40;;;1.87;;
15198;SDS011;7700;48.654;9.070;2023-04-03T11:46:21;3.27;;;1.50;;
15198;SDS011;7700;48.654;9.070;2023-04-03T11:48:49;1.70;;;1.60;;
15198;SDS011;7700;48.654;9.070;2023-04-03T11:53:54;2.27;;;2.00;;
15198;SDS011;7700;48.654;9.070;2023-04-03T11:56:40;2.50;;;1.50;;
15198;SDS011;7700;48.654;9.070;2023-04-03T12:04:09;3.27;;;1.57;;
15198;SDS011;7700;48.654;9.070;2023-04-03T12:09:15;1.63;;;1.40;;
15198;SDS011;7700;48.654;9.070;2023-04-03T12:11:48;1.63;;;1.50;;
15198;SDS011;7700;48.654;9.070;2023-04-03T12:14:15;2.37;;;2.07;;
15198;SDS011;7700;48.654;9.070;2023-04-03T12:16:42;2.40;;;1.67;;
15198;SDS011;7700;48.654;9.070;2023-04-03T12:29:24;2.67;;;1.60;;
15198;SDS011;7700;48.654;9.070;2023-04-03T12:32:03;2.17;;;1.90;;
15198;SDS011;7700;48.654;9.070;2023-04-03T12:37:03;1.40;;;1.27;;
15198;SDS011;7700;48.654;9.070;2023-04-03T12:47:23;1.97;;;1.50;;
15198;SDS011;7700;48.654;9.070;2023-04-03T12:49:50;1.50;;;1.40;;
15198;SDS011;7700;48.654;9.070;2023-04-03T12:52:19;2.40;;;1.80;;
15198;SDS011;7700;48.654;9.070;2023-04-03T12:54:48;2.67;;;1.70;;
15198;SDS011;7700;48.654;9.070;2023-04-03T12:59:41;2.60;;;1.90;;
15198;SDS011;7700;48.654;9.070;2023-04-03T13:02:15;3.17;;;1.63;;
15198;SDS011;7700;48.654;9.070;2023-04-03T13:04:43;4.90;;;1.80;;
15198;SDS011;7700;48.654;9.070;2023-04-03T13:07:30;2.73;;;1.83;;
15198;SDS011;7700;48.654;9.070;2023-04-03T13:10:03;3.17;;;1.63;;
15198;SDS011;7700;48.654;9.070;2023-04-03T13:12:30;1.77;;;1.53;;
15198;SDS011;7700;48.654;9.070;2023-04-03T13:14:57;1.83;;;1.73;;
15198;SDS011;7700;48.654;9.070;2023-04-03T13:17:24;2.90;;;2.20;;
15198;SDS011;7700;48.654;9.070;2023-04-03T13:19:51;1.87;;;1.30;;
15198;SDS011;7700;48.654;9.070;2023-04-03T13:24:53;3.50;;;1.73;;
15198;SDS011;7700;48.654;9.070;2023-04-03T13:27:20;2.57;;;1.60;;
15198;SDS011;7700;48.654;9.070;2023-04-03T13:29:49;3.83;;;1.43;;
15198;SDS011;7700;48.654;9.070;2023-04-03T13:32:18;2.73;;;1.60;;
15198;SDS011;7700;48.654;9.070;2023-04-03T13:34:45;1.57;;;1.47;;
15198;SDS011;7700;48.654;9.070;2023-04-03T13:37:27;2.83;;;1.40;;
15198;SDS011;7700;48.654;9.070;2023-04-03T13:40:12;1.90;;;1.60;;
15198;SDS011;7700;48.654;9.070;2023-04-03T13:42:39;2.03;;;1.40;;
15198;SDS011;7700;48.654;9.070;2023-04-03T13:45:20;2.17;;;1.67;;
15198;SDS011;7700;48.654;9.070;2023-04-03T13:47:48;4.90;;;1.63;;
15198;SDS011;7700;48.654;9.070;2023-04-03T13:50:17;3.13;;;1.77;;
15198;SDS011;7700;48.654;9.070;2023-04-03T13:52:45;1.87;;;1.70;;
15198;SDS011;7700;48.654;9.070;2023-04-03T13:55:17;1.97;;;1.73;;
15198;SDS011;7700;48.654;9.070;2023-04-03T14:00:27;2.10;;;1.90;;
15198;SDS011;7700;48.654;9.070;2023-04-03T14:02:54;2.10;;;1.70;;
15198;SDS011;7700;48.654;9.070;2023-04-03T14:05:21;3.50;;;1.70;;
15198;SDS011;7700;48.654;9.070;2023-04-03T14:07:48;1.87;;;1.50;;
15198;SDS011;7700;48.654;9.070;2023-04-03T14:10:14;3.00;;;1.80;;
15198;SDS011;7700;48.654;9.070;2023-04-03T14:12:40;3.10;;;1.63;;
15198;SDS011;7700;48.654;9.070;2023-04-03T14:15:23;1.80;;;1.70;;
15198;SDS011;7700;48.654;9.070;2023-04-03T14:17:49;1.83;;;1.60;;
15198;SDS011;7700;48.654;9.070;2023-04-03T14:20:17;2.87;;;1.63;;
15198;SDS011;7700;48.654;9.070;2023-04-03T14:22:43;2.93;;;1.63;;
15198;SDS011;7700;48.654;9.070;2023-04-03T14:25:09;2.97;;;1.70;;
15198;SDS011;7700;48.654;9.070;2023-04-03T14:27:38;1.63;;;1.53;;
15198;SDS011;7700;48.654;9.070;2023-04-03T14:30:05;1.83;;;1.50;;
15198;SDS011;7700;48.654;9.070;2023-04-03T14:32:33;1.97;;;1.77;;
15198;SDS011;7700;48.654;9.070;2023-04-03T14:34:59;1.50;;;1.40;;
15198;SDS011;7700;48.654;9.070;2023-04-03T14:37:27;1.60;;;1.50;;
15198;SDS011;7700;48.654;9.070;2023-04-03T14:39:54;2.90;;;1.83;;
15198;SDS011;7700;48.654;9.070;2023-04-03T14:42:22;2.17;;;1.77;;
15198;SDS011;7700;48.654;9.070;2023-04-03T14:44:49;5.53;;;3.33;;
15198;SDS011;7700;48.654;9.070;2023-04-03T14:47:16;2.90;;;2.10;;
15198;SDS011;7700;48.654;9.070;2023-04-03T14:49:44;3.40;;;2.20;;
15198;SDS011;7700;48.654;9.070;2023-04-03T14:52:23;2.47;;;1.93;;
15198;SDS011;7700;48.654;9.070;2023-04-03T14:54:50;2.07;;;1.93;;
15198;SDS011;7700;48.654;9.070;2023-04-03T14:57:16;2.10;;;1.90;;
15198;SDS011;7700;48.654;9.070;2023-04-03T14:59:43;2.23;;;2.00;;
15198;SDS011;7700;48.654;9.070;2023-04-03T15:02:51;2.27;;;2.00;;
15198;SDS011;7700;48.654;9.070;2023-04-03T15:04:58;3.60;;;1.87;;
15198;SDS011;7700;48.654;9.070;2023-04-03T15:07:26;2.77;;;1.97;;
15198;SDS011;7700;48.654;9.070;2023-04-03T15:09:52;2.97;;;1.70;;
15198;SDS011;7700;48.654;9.070;2023-04-03T15:12:21;2.00;;;1.53;;
15198;SDS011;7700;48.654;9.070;2023-04-03T15:14:47;2.27;;;1.53;;
15198;SDS011;7700;48.654;9.070;2023-04-03T15:17:19;1.30;;;1.20;;
15198;SDS011;7700;48.654;9.070;2023-04-03T15:19:46;1.80;;;1.67;;
15198;SDS011;7700;48.654;9.070;2023-04-03T15:22:17;1.87;;;1.77;;
15198;SDS011;7700;48.654;9.070;2023-04-03T15:24:44;3.13;;;2.20;;
15198;SDS011;7700;48.654;9.070;2023-04-03T15:27:10;3.90;;;2.43;;
15198;SDS011;7700;48.654;9.070;2023-04-03T15:29:38;2.70;;;1.90;;
15198;SDS011;7700;48.654;9.070;2023-04-03T15:32:04;1.63;;;1.50;;
15198;SDS011;7700;48.654;9.070;2023-04-03T15:34:30;2.53;;;1.87;;
15198;SDS011;7700;48.654;9.070;2023-04-03T15:36:56;1.80;;;1.70;;
15198;SDS011;7700;48.654;9.070;2023-04-03T15:39:24;2.40;;;1.53;;
15198;SDS011;7700;48.654;9.070;2023-04-03T15:41:50;2.00;;;1.80;;
15198;SDS011;7700;48.654;9.070;2023-04-03T15:44:17;2.83;;;1.80;;
15198;SDS011;7700;48.654;9.070;2023-04-03T15:46:44;1.63;;;1.53;;
15198;SDS011;7700;48.654;9.070;2023-04-03T15:49:10;3.63;;;1.80;;
15198;SDS011;7700;48.654;9.070;2023-04-03T15:51:36;1.87;;;1.70;;
15198;SDS011;7700;48.654;9.070;2023-04-03T15:54:02;2.00;;;1.70;;
15198;SDS011;7700;48.654;9.070;2023-04-03T15:56:28;2.83;;;1.60;;
15198;SDS011;7700;48.654;9.070;2023-04-03T15:58:54;2.23;;;1.50;;
15198;SDS011;7700;48.654;9.070;2023-04-03T16:01:20;2.27;;;1.90;;
15198;SDS011;7700;48.654;9.070;2023-04-03T16:03:46;1.70;;;1.60;;
15198;SDS011;7700;48.654;9.070;2023-04-03T16:06:16;2.10;;;1.87;;
15198;SDS011;7700;48.654;9.070;2023-04-03T16:08:43;1.60;;;1.50;;
15198;SDS011;7700;48.654;9.070;2023-04-03T16:11:09;2.77;;;2.00;;
15198;SDS011;7700;48.654;9.070;2023-04-03T16:13:35;1.90;;;1.70;;
15198;SDS011;7700;48.654;9.070;2023-04-03T16:16:02;2.27;;;1.70;;
15198;SDS011;7700;48.654;9.070;2023-04-03T16:18:28;3.00;;;2.33;;
15198;SDS011;7700;48.654;9.070;2023-04-03T16:20:54;6.30;;;3.43;;
15198;SDS011;7700;48.654;9.070;2023-04-03T16:23:21;7.20;;;3.73;;